sensor_id;sensor_type;location;lat;lon;timestamp;P1;durP1;ratioP1;P2;durP2;ratioP2
77828;SDS011;67019;51.034;3.728;2023-06-22T00:01:06;13.72;;;5.92;;
77828;SDS011;67019;51.034;3.728;2023-06-22T00:03:36;13.45;;;5.90;;
77828;SDS011;67019;51.034;3.728;2023-06-22T00:06:03;9.30;;;6.17;;
77828;SDS011;67019;51.034;3.728;2023-06-22T00:08:32;12.10;;;6.35;;
77828;SDS011;67019;51.034;3.728;2023-06-22T00:11:01;11.80;;;6.10;;
77828;SDS011;67019;51.034;3.728;2023-06-22T00:13:32;13.08;;;6.87;;
77828;SDS011;67019;51.034;3.728;2023-06-22T00:16:05;13.58;;;6.60;;
77828;SDS011;67019;51.034;3.728;2023-06-22T00:18:29;12.60;;;6.58;;
77828;SDS011;67019;51.034;3.728;2023-06-22T00:21:01;12.13;;;6.67;;
77828;SDS011;67019;51.034;3.728;2023-06-22T00:23:30;11.63;;;7.20;;
77828;SDS011;67019;51.034;3.728;2023-06-22T00:26:00;11.38;;;7.25;;
77828;SDS011;67019;51.034;3.728;2023-06-22T00:28:27;14.87;;;8.23;;
77828;SDS011;67019;51.034;3.728;2023-06-22T00:30:55;12.75;;;7.35;;
77828;SDS011;67019;51.034;3.728;2023-06-22T00:33:24;14.20;;;8.10;;
77828;SDS011;67019;51.034;3.728;2023-06-22T00:35:56;14.47;;;9.45;;
77828;SDS011;67019;51.034;3.728;2023-06-22T00:38:24;20.55;;;10.25;;
77828;SDS011;67019;51.034;3.728;2023-06-22T00:40:52;12.47;;;8.50;;
77828;SDS011;67019;51.034;3.728;2023-06-22T00:43:20;17.90;;;8.85;;
77828;SDS011;67019;51.034;3.728;2023-06-22T00:45:47;12.90;;;8.43;;
77828;SDS011;67019;51.034;3.728;2023-06-22T00:48:15;14.65;;;9.30;;
77828;SDS011;67019;51.034;3.728;2023-06-22T00:50:43;14.20;;;8.15;;
77828;SDS011;67019;51.034;3.728;2023-06-22T00:53:10;10.90;;;7.20;;
77828;SDS011;67019;51.034;3.728;2023-06-22T00:55:44;10.30;;;7.92;;
77828;SDS011;67019;51.034;3.728;2023-06-22T00:58:13;10.20;;;7.00;;
77828;SDS011;67019;51.034;3.728;2023-06-22T01:00:49;7.17;;;5.70;;
77828;SDS011;67019;51.034;3.728;2023-06-22T01:03:13;9.30;;;5.60;;
77828;SDS011;67019;51.034;3.728;2023-06-22T01:05:42;10.75;;;5.17;;
77828;SDS011;67019;51.034;3.728;2023-06-22T01:08:23;7.15;;;5.08;;
77828;SDS011;67019;51.034;3.728;2023-06-22T01:10:55;6.78;;;4.85;;
77828;SDS011;67019;51.034;3.728;2023-06-22T01:13:37;17.17;;;5.10;;
77828;SDS011;67019;51.034;3.728;2023-06-22T01:16:18;4.92;;;3.90;;
77828;SDS011;67019;51.034;3.728;2023-06-22T01:19:18;5.37;;;3.62;;
77828;SDS011;67019;51.034;3.728;2023-06-22T01:21:46;8.65;;;4.97;;
77828;SDS011;67019;51.034;3.728;2023-06-22T01:24:16;8.48;;;4.15;;
77828;SDS011;67019;51.034;3.728;2023-06-22T01:29:53;7.40;;;4.30;;
77828;SDS011;67019;51.034;3.728;2023-06-22T01:32:20;7.90;;;4.42;;
77828;SDS011;67019;51.034;3.728;2023-06-22T01:34:48;7.37;;;4.83;;
77828;SDS011;67019;51.034;3.728;2023-06-22T01:37:19;5.20;;;3.92;;
77828;SDS011;67019;51.034;3.728;2023-06-22T01:39:47;4.92;;;3.85;;
77828;SDS011;67019;51.034;3.728;2023-06-22T01:42:15;6.10;;;3.95;;
77828;SDS011;67019;51.034;3.728;2023-06-22T01:44:43;4.55;;;3.52;;
77828;SDS011;67019;51.034;3.728;2023-06-22T01:47:12;6.17;;;3.87;;
77828;SDS011;67019;51.034;3.728;2023-06-22T01:49:40;6.12;;;4.12;;
77828;SDS011;67019;51.034;3.728;2023-06-22T01:52:08;6.95;;;3.80;;
77828;SDS011;67019;51.034;3.728;2023-06-22T01:54:37;5.37;;;3.98;;
77828;SDS011;67019;51.034;3.728;2023-06-22T01:57:06;8.03;;;4.42;;
77828;SDS011;67019;51.034;3.728;2023-06-22T02:02:39;6.85;;;4.28;;
77828;SDS011;67019;51.034;3.728;2023-06-22T02:05:11;9.15;;;5.55;;
77828;SDS011;67019;51.034;3.728;2023-06-22T02:08:02;6.17;;;4.22;;
77828;SDS011;67019;51.034;3.728;2023-06-22T02:10:21;8.48;;;4.08;;
77828;SDS011;67019;51.034;3.728;2023-06-22T02:12:50;4.70;;;3.83;;
77828;SDS011;67019;51.034;3.728;2023-06-22T02:15:20;6.87;;;4.53;;
77828;SDS011;67019;51.034;3.728;2023-06-22T02:17:48;5.95;;;4.15;;
77828;SDS011;67019;51.034;3.728;2023-06-22T02:20:16;8.88;;;4.20;;
77828;SDS011;67019;51.034;3.728;2023-06-22T02:22:45;5.22;;;4.25;;
77828;SDS011;67019;51.034;3.728;2023-06-22T02:25:13;8.93;;;4.47;;
77828;SDS011;67019;51.034;3.728;2023-06-22T02:27:41;8.00;;;4.47;;
77828;SDS011;67019;51.034;3.728;2023-06-22T02:30:08;6.67;;;4.65;;
77828;SDS011;67019;51.034;3.728;2023-06-22T02:32:40;4.57;;;3.73;;
77828;SDS011;67019;51.034;3.728;2023-06-22T02:35:10;8.97;;;4.70;;
77828;SDS011;67019;51.034;3.728;2023-06-22T02:37:39;6.97;;;4.50;;
77828;SDS011;67019;51.034;3.728;2023-06-22T02:40:10;9.73;;;4.22;;
77828;SDS011;67019;51.034;3.728;2023-06-22T02:42:39;7.62;;;4.65;;
77828;SDS011;67019;51.034;3.728;2023-06-22T02:45:07;7.42;;;4.58;;
77828;SDS011;67019;51.034;3.728;2023-06-22T02:47:37;9.50;;;5.28;;
77828;SDS011;67019;51.034;3.728;2023-06-22T02:50:04;8.13;;;4.70;;
77828;SDS011;67019;51.034;3.728;2023-06-22T02:52:32;5.20;;;4.50;;
77828;SDS011;67019;51.034;3.728;2023-06-22T02:55:01;8.63;;;4.53;;
77828;SDS011;67019;51.034;3.728;2023-06-22T02:57:29;6.42;;;4.60;;
77828;SDS011;67019;51.034;3.728;2023-06-22T02:59:57;6.90;;;3.72;;
77828;SDS011;67019;51.034;3.728;2023-06-22T03:02:25;9.45;;;4.53;;
77828;SDS011;67019;51.034;3.728;2023-06-22T03:04:54;5.42;;;4.20;;
77828;SDS011;67019;51.034;3.728;2023-06-22T03:07:22;7.65;;;4.50;;
77828;SDS011;67019;51.034;3.728;2023-06-22T03:09:51;6.35;;;4.67;;
77828;SDS011;67019;51.034;3.728;2023-06-22T03:12:18;9.98;;;6.67;;
77828;SDS011;67019;51.034;3.728;2023-06-22T03:14:46;10.38;;;6.55;;
77828;SDS011;67019;51.034;3.728;2023-06-22T03:17:14;10.03;;;6.15;;
77828;SDS011;67019;51.034;3.728;2023-06-22T03:19:41;7.95;;;5.83;;
77828;SDS011;67019;51.034;3.728;2023-06-22T03:22:09;8.70;;;5.95;;
77828;SDS011;67019;51.034;3.728;2023-06-22T03:24:39;8.40;;;5.55;;
77828;SDS011;67019;51.034;3.728;2023-06-22T03:27:10;12.68;;;6.25;;
77828;SDS011;67019;51.034;3.728;2023-06-22T03:29:37;9.58;;;5.65;;
77828;SDS011;67019;51.034;3.728;2023-06-22T03:32:05;12.53;;;6.22;;
77828;SDS011;67019;51.034;3.728;2023-06-22T03:34:33;11.70;;;6.05;;
77828;SDS011;67019;51.034;3.728;2023-06-22T03:37:01;6.55;;;4.85;;
77828;SDS011;67019;51.034;3.728;2023-06-22T03:39:29;6.97;;;4.87;;
77828;SDS011;67019;51.034;3.728;2023-06-22T03:41:58;8.43;;;5.15;;
77828;SDS011;67019;51.034;3.728;2023-06-22T03:44:26;8.55;;;5.28;;
77828;SDS011;67019;51.034;3.728;2023-06-22T03:46:54;9.13;;;5.40;;
77828;SDS011;67019;51.034;3.728;2023-06-22T03:49:21;13.08;;;7.90;;
77828;SDS011;67019;51.034;3.728;2023-06-22T03:51:50;11.85;;;7.53;;
77828;SDS011;67019;51.034;3.728;2023-06-22T03:54:19;13.50;;;8.05;;
77828;SDS011;67019;51.034;3.728;2023-06-22T03:56:54;10.43;;;6.40;;
77828;SDS011;67019;51.034;3.728;2023-06-22T03:59:22;15.83;;;7.95;;
77828;SDS011;67019;51.034;3.728;2023-06-22T04:01:52;15.35;;;7.22;;
77828;SDS011;67019;51.034;3.728;2023-06-22T04:04:20;16.62;;;7.78;;
77828;SDS011;67019;51.034;3.728;2023-06-22T04:06:49;16.97;;;7.97;;
77828;SDS011;67019;51.034;3.728;2023-06-22T04:09:19;18.20;;;8.08;;
77828;SDS011;67019;51.034;3.728;2023-06-22T04:11:51;17.75;;;8.28;;
77828;SDS011;67019;51.034;3.728;2023-06-22T04:14:19;18.62;;;8.03;;
77828;SDS011;67019;51.034;3.728;2023-06-22T04:16:47;16.40;;;8.05;;
77828;SDS011;67019;51.034;3.728;2023-06-22T04:19:16;22.58;;;8.00;;
77828;SDS011;67019;51.034;3.728;2023-06-22T04:21:44;17.85;;;8.60;;
77828;SDS011;67019;51.034;3.728;2023-06-22T04:24:14;17.60;;;8.40;;
77828;SDS011;67019;51.034;3.728;2023-06-22T04:26:42;15.75;;;8.73;;
77828;SDS011;67019;51.034;3.728;2023-06-22T04:29:13;19.42;;;8.48;;
77828;SDS011;67019;51.034;3.728;2023-06-22T04:31:42;16.15;;;8.35;;
77828;SDS011;67019;51.034;3.728;2023-06-22T04:34:10;18.27;;;9.63;;
77828;SDS011;67019;51.034;3.728;2023-06-22T04:36:41;19.57;;;9.60;;
77828;SDS011;67019;51.034;3.728;2023-06-22T04:39:11;19.98;;;8.65;;
77828;SDS011;67019;51.034;3.728;2023-06-22T04:41:39;20.35;;;9.75;;
77828;SDS011;67019;51.034;3.728;2023-06-22T04:44:08;20.60;;;9.93;;
77828;SDS011;67019;51.034;3.728;2023-06-22T04:46:37;21.73;;;9.78;;
77828;SDS011;67019;51.034;3.728;2023-06-22T04:49:09;23.95;;;10.95;;
77828;SDS011;67019;51.034;3.728;2023-06-22T04:51:38;17.25;;;11.22;;
77828;SDS011;67019;51.034;3.728;2023-06-22T04:54:08;19.27;;;11.70;;
77828;SDS011;67019;51.034;3.728;2023-06-22T04:56:39;20.32;;;11.28;;
77828;SDS011;67019;51.034;3.728;2023-06-22T04:59:17;19.75;;;10.90;;
77828;SDS011;67019;51.034;3.728;2023-06-22T05:01:49;25.40;;;12.03;;
77828;SDS011;67019;51.034;3.728;2023-06-22T05:04:17;24.87;;;10.53;;
77828;SDS011;67019;51.034;3.728;2023-06-22T05:06:45;18.15;;;9.95;;
77828;SDS011;67019;51.034;3.728;2023-06-22T05:09:15;18.05;;;9.55;;
77828;SDS011;67019;51.034;3.728;2023-06-22T05:11:46;24.92;;;9.28;;
77828;SDS011;67019;51.034;3.728;2023-06-22T05:14:18;19.92;;;9.90;;
77828;SDS011;67019;51.034;3.728;2023-06-22T05:16:52;16.65;;;8.85;;
77828;SDS011;67019;51.034;3.728;2023-06-22T05:19:20;24.90;;;10.82;;
77828;SDS011;67019;51.034;3.728;2023-06-22T05:24:35;18.52;;;8.48;;
77828;SDS011;67019;51.034;3.728;2023-06-22T05:27:05;19.20;;;8.60;;
77828;SDS011;67019;51.034;3.728;2023-06-22T05:29:33;20.52;;;8.75;;
77828;SDS011;67019;51.034;3.728;2023-06-22T05:32:01;19.23;;;9.45;;
77828;SDS011;67019;51.034;3.728;2023-06-22T05:34:29;16.73;;;8.45;;
77828;SDS011;67019;51.034;3.728;2023-06-22T05:36:59;20.85;;;8.58;;
77828;SDS011;67019;51.034;3.728;2023-06-22T05:39:27;15.03;;;8.48;;
77828;SDS011;67019;51.034;3.728;2023-06-22T05:41:56;17.15;;;7.78;;
77828;SDS011;67019;51.034;3.728;2023-06-22T05:44:24;14.75;;;7.47;;
77828;SDS011;67019;51.034;3.728;2023-06-22T05:46:51;20.43;;;9.00;;
77828;SDS011;67019;51.034;3.728;2023-06-22T05:49:19;16.62;;;8.83;;
77828;SDS011;67019;51.034;3.728;2023-06-22T05:51:48;18.25;;;8.35;;
77828;SDS011;67019;51.034;3.728;2023-06-22T05:54:17;17.23;;;8.30;;
77828;SDS011;67019;51.034;3.728;2023-06-22T05:56:44;19.02;;;8.18;;
77828;SDS011;67019;51.034;3.728;2023-06-22T05:59:14;13.58;;;8.75;;
77828;SDS011;67019;51.034;3.728;2023-06-22T06:01:41;23.18;;;9.23;;
77828;SDS011;67019;51.034;3.728;2023-06-22T06:04:09;20.30;;;9.80;;
77828;SDS011;67019;51.034;3.728;2023-06-22T06:06:37;19.30;;;8.75;;
77828;SDS011;67019;51.034;3.728;2023-06-22T06:09:05;12.10;;;8.13;;
77828;SDS011;67019;51.034;3.728;2023-06-22T06:11:33;13.78;;;9.50;;
77828;SDS011;67019;51.034;3.728;2023-06-22T06:14:01;14.03;;;9.93;;
77828;SDS011;67019;51.034;3.728;2023-06-22T06:16:28;15.98;;;8.98;;
77828;SDS011;67019;51.034;3.728;2023-06-22T06:18:56;13.78;;;9.10;;
77828;SDS011;67019;51.034;3.728;2023-06-22T06:21:25;17.57;;;10.55;;
77828;SDS011;67019;51.034;3.728;2023-06-22T06:23:54;21.73;;;10.35;;
77828;SDS011;67019;51.034;3.728;2023-06-22T06:26:25;19.10;;;11.83;;
77828;SDS011;67019;51.034;3.728;2023-06-22T06:28:59;18.60;;;12.10;;
77828;SDS011;67019;51.034;3.728;2023-06-22T06:31:28;18.55;;;11.80;;
77828;SDS011;67019;51.034;3.728;2023-06-22T06:33:58;20.25;;;11.90;;
77828;SDS011;67019;51.034;3.728;2023-06-22T06:36:27;18.80;;;12.13;;
77828;SDS011;67019;51.034;3.728;2023-06-22T06:38:55;24.90;;;13.68;;
77828;SDS011;67019;51.034;3.728;2023-06-22T06:41:23;21.33;;;13.65;;
77828;SDS011;67019;51.034;3.728;2023-06-22T06:43:52;24.55;;;14.65;;
77828;SDS011;67019;51.034;3.728;2023-06-22T06:46:20;22.73;;;14.43;;
77828;SDS011;67019;51.034;3.728;2023-06-22T06:48:49;18.82;;;12.47;;
77828;SDS011;67019;51.034;3.728;2023-06-22T06:51:19;20.80;;;13.25;;
77828;SDS011;67019;51.034;3.728;2023-06-22T06:53:47;23.52;;;13.93;;
77828;SDS011;67019;51.034;3.728;2023-06-22T06:56:15;22.27;;;14.75;;
77828;SDS011;67019;51.034;3.728;2023-06-22T06:58:43;21.37;;;13.75;;
77828;SDS011;67019;51.034;3.728;2023-06-22T07:01:11;23.77;;;13.55;;
77828;SDS011;67019;51.034;3.728;2023-06-22T07:03:44;20.92;;;13.25;;
77828;SDS011;67019;51.034;3.728;2023-06-22T07:08:40;23.73;;;14.10;;
77828;SDS011;67019;51.034;3.728;2023-06-22T07:11:10;22.87;;;15.28;;
77828;SDS011;67019;51.034;3.728;2023-06-22T07:13:39;19.85;;;15.28;;
77828;SDS011;67019;51.034;3.728;2023-06-22T07:16:06;23.45;;;14.50;;
77828;SDS011;67019;51.034;3.728;2023-06-22T07:18:34;24.45;;;14.73;;
77828;SDS011;67019;51.034;3.728;2023-06-22T07:21:02;26.52;;;15.75;;
77828;SDS011;67019;51.034;3.728;2023-06-22T07:23:31;21.55;;;14.58;;
77828;SDS011;67019;51.034;3.728;2023-06-22T07:25:59;24.75;;;15.40;;
77828;SDS011;67019;51.034;3.728;2023-06-22T07:28:27;26.00;;;15.88;;
77828;SDS011;67019;51.034;3.728;2023-06-22T07:30:57;19.93;;;14.50;;
77828;SDS011;67019;51.034;3.728;2023-06-22T07:33:25;21.97;;;14.58;;
77828;SDS011;67019;51.034;3.728;2023-06-22T07:35:53;23.67;;;14.70;;
77828;SDS011;67019;51.034;3.728;2023-06-22T07:38:21;27.60;;;15.10;;
77828;SDS011;67019;51.034;3.728;2023-06-22T07:40:48;22.98;;;14.60;;
77828;SDS011;67019;51.034;3.728;2023-06-22T07:43:18;30.50;;;17.03;;
77828;SDS011;67019;51.034;3.728;2023-06-22T07:45:49;21.55;;;15.15;;
77828;SDS011;67019;51.034;3.728;2023-06-22T07:48:21;19.12;;;13.80;;
77828;SDS011;67019;51.034;3.728;2023-06-22T07:50:49;22.52;;;13.80;;
77828;SDS011;67019;51.034;3.728;2023-06-22T07:53:18;20.65;;;14.55;;
77828;SDS011;67019;51.034;3.728;2023-06-22T07:55:46;20.32;;;13.38;;
77828;SDS011;67019;51.034;3.728;2023-06-22T07:58:14;18.25;;;14.03;;
77828;SDS011;67019;51.034;3.728;2023-06-22T08:03:11;19.27;;;13.15;;
77828;SDS011;67019;51.034;3.728;2023-06-22T08:05:39;16.55;;;12.85;;
77828;SDS011;67019;51.034;3.728;2023-06-22T08:08:07;17.45;;;13.78;;
77828;SDS011;67019;51.034;3.728;2023-06-22T08:10:34;22.60;;;13.83;;
77828;SDS011;67019;51.034;3.728;2023-06-22T08:13:03;23.05;;;14.33;;
77828;SDS011;67019;51.034;3.728;2023-06-22T08:15:30;15.50;;;12.88;;
77828;SDS011;67019;51.034;3.728;2023-06-22T08:17:58;24.15;;;14.35;;
77828;SDS011;67019;51.034;3.728;2023-06-22T08:20:26;21.45;;;14.85;;
77828;SDS011;67019;51.034;3.728;2023-06-22T08:22:54;18.30;;;13.35;;
77828;SDS011;67019;51.034;3.728;2023-06-22T08:25:23;21.10;;;13.33;;
77828;SDS011;67019;51.034;3.728;2023-06-22T08:27:51;22.40;;;13.15;;
77828;SDS011;67019;51.034;3.728;2023-06-22T08:30:19;21.60;;;13.13;;
77828;SDS011;67019;51.034;3.728;2023-06-22T08:32:46;17.60;;;12.07;;
77828;SDS011;67019;51.034;3.728;2023-06-22T08:35:14;18.00;;;12.88;;
77828;SDS011;67019;51.034;3.728;2023-06-22T08:37:42;20.10;;;13.75;;
77828;SDS011;67019;51.034;3.728;2023-06-22T08:40:11;20.75;;;12.35;;
77828;SDS011;67019;51.034;3.728;2023-06-22T08:42:42;19.87;;;13.55;;
77828;SDS011;67019;51.034;3.728;2023-06-22T08:45:09;20.90;;;13.00;;
77828;SDS011;67019;51.034;3.728;2023-06-22T08:47:37;19.35;;;13.95;;
77828;SDS011;67019;51.034;3.728;2023-06-22T08:50:07;19.87;;;15.18;;
77828;SDS011;67019;51.034;3.728;2023-06-22T08:52:35;20.08;;;13.95;;
77828;SDS011;67019;51.034;3.728;2023-06-22T08:55:07;22.37;;;14.18;;
77828;SDS011;67019;51.034;3.728;2023-06-22T08:57:42;23.83;;;16.62;;
77828;SDS011;67019;51.034;3.728;2023-06-22T09:00:11;25.68;;;16.75;;
77828;SDS011;67019;51.034;3.728;2023-06-22T09:02:48;22.55;;;16.37;;
77828;SDS011;67019;51.034;3.728;2023-06-22T09:08:34;28.12;;;17.23;;
77828;SDS011;67019;51.034;3.728;2023-06-22T09:11:02;26.12;;;16.73;;
77828;SDS011;67019;51.034;3.728;2023-06-22T09:13:30;25.32;;;15.93;;
77828;SDS011;67019;51.034;3.728;2023-06-22T09:16:00;20.77;;;16.40;;
77828;SDS011;67019;51.034;3.728;2023-06-22T09:18:28;20.48;;;16.20;;
77828;SDS011;67019;51.034;3.728;2023-06-22T09:20:57;21.57;;;16.20;;
77828;SDS011;67019;51.034;3.728;2023-06-22T09:23:25;28.60;;;14.28;;
77828;SDS011;67019;51.034;3.728;2023-06-22T09:25:52;21.17;;;14.25;;
77828;SDS011;67019;51.034;3.728;2023-06-22T09:28:20;20.57;;;15.43;;
77828;SDS011;67019;51.034;3.728;2023-06-22T09:30:48;22.67;;;14.85;;
77828;SDS011;67019;51.034;3.728;2023-06-22T09:33:16;22.20;;;14.78;;
77828;SDS011;67019;51.034;3.728;2023-06-22T09:35:45;22.58;;;14.40;;
77828;SDS011;67019;51.034;3.728;2023-06-22T09:38:14;21.05;;;14.80;;
77828;SDS011;67019;51.034;3.728;2023-06-22T09:40:42;19.15;;;13.58;;
77828;SDS011;67019;51.034;3.728;2023-06-22T09:43:10;22.55;;;15.03;;
77828;SDS011;67019;51.034;3.728;2023-06-22T09:45:45;27.58;;;15.72;;
77828;SDS011;67019;51.034;3.728;2023-06-22T09:51:34;25.65;;;17.00;;
77828;SDS011;67019;51.034;3.728;2023-06-22T09:54:03;26.10;;;16.77;;
77828;SDS011;67019;51.034;3.728;2023-06-22T09:56:31;21.80;;;15.25;;
77828;SDS011;67019;51.034;3.728;2023-06-22T09:58:58;30.82;;;16.73;;
77828;SDS011;67019;51.034;3.728;2023-06-22T10:01:26;26.52;;;15.80;;
77828;SDS011;67019;51.034;3.728;2023-06-22T10:03:55;29.18;;;16.57;;
77828;SDS011;67019;51.034;3.728;2023-06-22T10:06:23;17.80;;;13.83;;
77828;SDS011;67019;51.034;3.728;2023-06-22T10:08:51;26.12;;;14.45;;
77828;SDS011;67019;51.034;3.728;2023-06-22T10:11:18;23.40;;;14.40;;
77828;SDS011;67019;51.034;3.728;2023-06-22T10:13:48;20.48;;;13.65;;
77828;SDS011;67019;51.034;3.728;2023-06-22T10:16:15;23.18;;;13.28;;
77828;SDS011;67019;51.034;3.728;2023-06-22T10:18:48;19.05;;;12.33;;
77828;SDS011;67019;51.034;3.728;2023-06-22T10:21:20;20.52;;;13.35;;
77828;SDS011;67019;51.034;3.728;2023-06-22T10:23:48;18.32;;;13.60;;
77828;SDS011;67019;51.034;3.728;2023-06-22T10:26:22;18.65;;;13.53;;
77828;SDS011;67019;51.034;3.728;2023-06-22T10:28:52;23.50;;;13.43;;
77828;SDS011;67019;51.034;3.728;2023-06-22T10:31:20;20.08;;;13.93;;
77828;SDS011;67019;51.034;3.728;2023-06-22T10:33:48;24.45;;;13.85;;
77828;SDS011;67019;51.034;3.728;2023-06-22T10:36:18;21.55;;;13.88;;
77828;SDS011;67019;51.034;3.728;2023-06-22T10:38:45;20.80;;;14.90;;
77828;SDS011;67019;51.034;3.728;2023-06-22T10:41:13;21.82;;;14.87;;
77828;SDS011;67019;51.034;3.728;2023-06-22T10:43:42;25.10;;;15.65;;
77828;SDS011;67019;51.034;3.728;2023-06-22T10:46:10;22.55;;;14.98;;
77828;SDS011;67019;51.034;3.728;2023-06-22T10:48:38;24.87;;;15.60;;
77828;SDS011;67019;51.034;3.728;2023-06-22T10:51:06;21.48;;;15.13;;
77828;SDS011;67019;51.034;3.728;2023-06-22T10:53:33;23.75;;;15.58;;
77828;SDS011;67019;51.034;3.728;2023-06-22T10:56:01;21.57;;;15.85;;
77828;SDS011;67019;51.034;3.728;2023-06-22T10:58:29;24.52;;;15.45;;
77828;SDS011;67019;51.034;3.728;2023-06-22T11:00:56;24.47;;;16.15;;
77828;SDS011;67019;51.034;3.728;2023-06-22T11:03:24;25.25;;;16.55;;
77828;SDS011;67019;51.034;3.728;2023-06-22T11:05:52;23.52;;;16.75;;
77828;SDS011;67019;51.034;3.728;2023-06-22T11:08:20;26.42;;;15.58;;
77828;SDS011;67019;51.034;3.728;2023-06-22T11:10:47;27.95;;;15.83;;
77828;SDS011;67019;51.034;3.728;2023-06-22T11:13:18;27.52;;;17.00;;
77828;SDS011;67019;51.034;3.728;2023-06-22T11:15:45;23.38;;;17.00;;
77828;SDS011;67019;51.034;3.728;2023-06-22T11:18:13;25.60;;;17.65;;
77828;SDS011;67019;51.034;3.728;2023-06-22T11:20:40;22.42;;;15.45;;
77828;SDS011;67019;51.034;3.728;2023-06-22T11:23:09;24.55;;;14.73;;
77828;SDS011;67019;51.034;3.728;2023-06-22T11:25:38;19.90;;;14.80;;
77828;SDS011;67019;51.034;3.728;2023-06-22T11:28:07;20.35;;;14.47;;
77828;SDS011;67019;51.034;3.728;2023-06-22T11:33:58;16.15;;;11.97;;
77828;SDS011;67019;51.034;3.728;2023-06-22T11:36:25;20.20;;;12.00;;
77828;SDS011;67019;51.034;3.728;2023-06-22T11:38:55;18.20;;;11.83;;
77828;SDS011;67019;51.034;3.728;2023-06-22T11:41:22;13.48;;;10.18;;
77828;SDS011;67019;51.034;3.728;2023-06-22T11:43:50;14.25;;;9.75;;
77828;SDS011;67019;51.034;3.728;2023-06-22T11:46:17;14.58;;;8.03;;
77828;SDS011;67019;51.034;3.728;2023-06-22T11:48:50;11.55;;;6.95;;
77828;SDS011;67019;51.034;3.728;2023-06-22T11:51:16;15.05;;;8.00;;
77828;SDS011;67019;51.034;3.728;2023-06-22T11:53:43;14.60;;;7.37;;
77828;SDS011;67019;51.034;3.728;2023-06-22T11:56:11;11.25;;;7.03;;
77828;SDS011;67019;51.034;3.728;2023-06-22T11:58:39;9.33;;;6.67;;
77828;SDS011;67019;51.034;3.728;2023-06-22T12:01:06;12.03;;;7.15;;
77828;SDS011;67019;51.034;3.728;2023-06-22T12:03:38;13.32;;;7.95;;
77828;SDS011;67019;51.034;3.728;2023-06-22T12:06:07;11.97;;;7.67;;
77828;SDS011;67019;51.034;3.728;2023-06-22T12:08:34;14.83;;;7.35;;
77828;SDS011;67019;51.034;3.728;2023-06-22T12:11:02;25.15;;;7.95;;
77828;SDS011;67019;51.034;3.728;2023-06-22T12:13:30;12.93;;;7.65;;
77828;SDS011;67019;51.034;3.728;2023-06-22T12:15:57;13.85;;;8.40;;
77828;SDS011;67019;51.034;3.728;2023-06-22T12:18:26;15.13;;;8.75;;
77828;SDS011;67019;51.034;3.728;2023-06-22T12:20:53;11.43;;;7.55;;
77828;SDS011;67019;51.034;3.728;2023-06-22T12:23:21;17.48;;;9.10;;
77828;SDS011;67019;51.034;3.728;2023-06-22T12:25:48;12.15;;;8.50;;
77828;SDS011;67019;51.034;3.728;2023-06-22T12:28:16;16.62;;;7.85;;
77828;SDS011;67019;51.034;3.728;2023-06-22T12:30:43;11.65;;;7.10;;
77828;SDS011;67019;51.034;3.728;2023-06-22T12:33:11;13.65;;;8.03;;
77828;SDS011;67019;51.034;3.728;2023-06-22T12:35:39;14.93;;;8.45;;
77828;SDS011;67019;51.034;3.728;2023-06-22T12:38:06;13.20;;;8.00;;
77828;SDS011;67019;51.034;3.728;2023-06-22T12:40:37;14.65;;;8.40;;
77828;SDS011;67019;51.034;3.728;2023-06-22T12:43:07;19.27;;;10.05;;
77828;SDS011;67019;51.034;3.728;2023-06-22T12:45:35;17.07;;;10.05;;
77828;SDS011;67019;51.034;3.728;2023-06-22T12:48:03;15.72;;;10.53;;
77828;SDS011;67019;51.034;3.728;2023-06-22T12:50:32;18.95;;;11.38;;
77828;SDS011;67019;51.034;3.728;2023-06-22T12:53:00;20.20;;;11.95;;
77828;SDS011;67019;51.034;3.728;2023-06-22T12:55:28;29.65;;;15.60;;
77828;SDS011;67019;51.034;3.728;2023-06-22T12:57:56;25.00;;;15.65;;
77828;SDS011;67019;51.034;3.728;2023-06-22T13:00:24;22.65;;;15.80;;
77828;SDS011;67019;51.034;3.728;2023-06-22T13:02:52;22.60;;;14.68;;
77828;SDS011;67019;51.034;3.728;2023-06-22T13:05:19;30.90;;;17.17;;
77828;SDS011;67019;51.034;3.728;2023-06-22T13:07:48;24.07;;;15.93;;
77828;SDS011;67019;51.034;3.728;2023-06-22T13:10:15;28.80;;;18.85;;
77828;SDS011;67019;51.034;3.728;2023-06-22T13:12:43;28.07;;;18.15;;
77828;SDS011;67019;51.034;3.728;2023-06-22T13:15:11;29.80;;;18.67;;
77828;SDS011;67019;51.034;3.728;2023-06-22T13:17:38;26.02;;;16.90;;
77828;SDS011;67019;51.034;3.728;2023-06-22T13:20:06;33.05;;;19.00;;
77828;SDS011;67019;51.034;3.728;2023-06-22T13:22:35;31.62;;;18.57;;
77828;SDS011;67019;51.034;3.728;2023-06-22T13:25:05;29.77;;;17.20;;
77828;SDS011;67019;51.034;3.728;2023-06-22T13:27:32;29.18;;;17.82;;
77828;SDS011;67019;51.034;3.728;2023-06-22T13:30:00;30.60;;;17.90;;
77828;SDS011;67019;51.034;3.728;2023-06-22T13:32:28;28.42;;;17.87;;
77828;SDS011;67019;51.034;3.728;2023-06-22T13:34:56;31.55;;;19.10;;
77828;SDS011;67019;51.034;3.728;2023-06-22T13:37:25;28.60;;;16.12;;
77828;SDS011;67019;51.034;3.728;2023-06-22T13:39:53;28.15;;;17.05;;
77828;SDS011;67019;51.034;3.728;2023-06-22T13:42:21;26.65;;;17.90;;
77828;SDS011;67019;51.034;3.728;2023-06-22T13:44:50;26.05;;;16.37;;
77828;SDS011;67019;51.034;3.728;2023-06-22T13:47:18;29.15;;;16.57;;
77828;SDS011;67019;51.034;3.728;2023-06-22T13:49:47;27.77;;;18.48;;
77828;SDS011;67019;51.034;3.728;2023-06-22T13:52:14;28.50;;;16.97;;
77828;SDS011;67019;51.034;3.728;2023-06-22T13:54:42;39.27;;;18.92;;
77828;SDS011;67019;51.034;3.728;2023-06-22T13:57:10;31.27;;;19.52;;
77828;SDS011;67019;51.034;3.728;2023-06-22T13:59:40;34.83;;;21.80;;
77828;SDS011;67019;51.034;3.728;2023-06-22T14:02:08;30.75;;;17.32;;
77828;SDS011;67019;51.034;3.728;2023-06-22T14:04:36;35.90;;;18.55;;
77828;SDS011;67019;51.034;3.728;2023-06-22T14:07:06;25.40;;;16.17;;
77828;SDS011;67019;51.034;3.728;2023-06-22T14:09:33;24.92;;;16.40;;
77828;SDS011;67019;51.034;3.728;2023-06-22T14:12:04;28.62;;;17.85;;
77828;SDS011;67019;51.034;3.728;2023-06-22T14:14:33;27.07;;;16.40;;
77828;SDS011;67019;51.034;3.728;2023-06-22T14:17:01;23.40;;;16.27;;
77828;SDS011;67019;51.034;3.728;2023-06-22T14:19:28;23.67;;;16.23;;
77828;SDS011;67019;51.034;3.728;2023-06-22T14:21:58;26.00;;;15.75;;
77828;SDS011;67019;51.034;3.728;2023-06-22T14:24:29;21.95;;;14.68;;
77828;SDS011;67019;51.034;3.728;2023-06-22T14:26:56;20.32;;;16.55;;
77828;SDS011;67019;51.034;3.728;2023-06-22T14:29:24;36.83;;;17.05;;
77828;SDS011;67019;51.034;3.728;2023-06-22T14:31:55;24.37;;;17.35;;
77828;SDS011;67019;51.034;3.728;2023-06-22T14:34:23;25.80;;;16.80;;
77828;SDS011;67019;51.034;3.728;2023-06-22T14:36:50;29.65;;;16.57;;
77828;SDS011;67019;51.034;3.728;2023-06-22T14:39:20;28.87;;;17.05;;
77828;SDS011;67019;51.034;3.728;2023-06-22T14:41:47;24.27;;;17.48;;
77828;SDS011;67019;51.034;3.728;2023-06-22T14:44:16;24.05;;;18.30;;
77828;SDS011;67019;51.034;3.728;2023-06-22T14:46:44;30.02;;;17.32;;
77828;SDS011;67019;51.034;3.728;2023-06-22T14:49:12;27.15;;;19.27;;
77828;SDS011;67019;51.034;3.728;2023-06-22T14:51:41;29.95;;;18.75;;
77828;SDS011;67019;51.034;3.728;2023-06-22T14:54:08;27.80;;;19.52;;
77828;SDS011;67019;51.034;3.728;2023-06-22T14:56:37;26.68;;;17.90;;
77828;SDS011;67019;51.034;3.728;2023-06-22T15:05:24;37.08;;;23.75;;
77828;SDS011;67019;51.034;3.728;2023-06-22T15:07:52;35.83;;;24.10;;
77828;SDS011;67019;51.034;3.728;2023-06-22T15:10:20;40.63;;;23.50;;